sensor_id;sensor_type;location;lat;lon;timestamp;temperature;humidity
14138;DHT22;8199;51.310;9.466;2023-07-31T00:01:35;24.90;49.90
14138;DHT22;8199;51.310;9.466;2023-07-31T00:04:01;25.00;49.90
14138;DHT22;8199;51.310;9.466;2023-07-31T00:06:27;24.90;49.90
14138;DHT22;8199;51.310;9.466;2023-07-31T00:08:52;24.80;50.50
14138;DHT22;8199;51.310;9.466;2023-07-31T00:11:18;24.90;50.00
14138;DHT22;8199;51.310;9.466;2023-07-31T00:13:43;24.80;50.10
14138;DHT22;8199;51.310;9.466;2023-07-31T00:16:09;24.80;50.10
14138;DHT22;8199;51.310;9.466;2023-07-31T00:18:34;24.80;50.00
14138;DHT22;8199;51.310;9.466;2023-07-31T00:21:00;24.80;50.30
14138;DHT22;8199;51.310;9.466;2023-07-31T00:23:25;24.80;50.20
14138;DHT22;8199;51.310;9.466;2023-07-31T00:25:51;24.70;50.30
14138;DHT22;8199;51.310;9.466;2023-07-31T00:28:16;24.80;50.10
14138;DHT22;8199;51.310;9.466;2023-07-31T00:30:42;24.60;50.20
14138;DHT22;8199;51.310;9.466;2023-07-31T00:33:07;24.70;50.30
14138;DHT22;8199;51.310;9.466;2023-07-31T00:35:33;24.70;50.20
14138;DHT22;8199;51.310;9.466;2023-07-31T00:37:59;24.80;50.10
14138;DHT22;8199;51.310;9.466;2023-07-31T00:40:24;24.90;50.00
14138;DHT22;8199;51.310;9.466;2023-07-31T00:42:50;24.80;50.00
14138;DHT22;8199;51.310;9.466;2023-07-31T00:45:15;24.90;50.10
14138;DHT22;8199;51.310;9.466;2023-07-31T00:47:41;24.90;50.10
14138;DHT22;8199;51.310;9.466;2023-07-31T00:50:07;24.80;50.10
14138;DHT22;8199;51.310;9.466;2023-07-31T00:52:33;24.80;50.20
14138;DHT22;8199;51.310;9.466;2023-07-31T00:54:59;24.80;50.20
14138;DHT22;8199;51.310;9.466;2023-07-31T00:57:25;24.80;50.10
14138;DHT22;8199;51.310;9.466;2023-07-31T00:59:51;24.70;50.00
14138;DHT22;8199;51.310;9.466;2023-07-31T01:02:16;24.70;50.00
14138;DHT22;8199;51.310;9.466;2023-07-31T01:04:43;24.50;50.20
14138;DHT22;8199;51.310;9.466;2023-07-31T01:07:14;24.50;50.10
14138;DHT22;8199;51.310;9.466;2023-07-31T01:09:52;24.60;50.30
14138;DHT22;8199;51.310;9.466;2023-07-31T01:12:21;24.40;50.90
14138;DHT22;8199;51.310;9.466;2023-07-31T01:15:01;24.50;50.30
14138;DHT22;8199;51.310;9.466;2023-07-31T01:17:28;24.60;50.20
14138;DHT22;8199;51.310;9.466;2023-07-31T01:19:59;24.70;50.00
14138;DHT22;8199;51.310;9.466;2023-07-31T01:25:43;24.70;50.10
14138;DHT22;8199;51.310;9.466;2023-07-31T01:28:15;24.70;50.00
14138;DHT22;8199;51.310;9.466;2023-07-31T01:30:45;24.60;50.10
14138;DHT22;8199;51.310;9.466;2023-07-31T01:33:11;24.70;50.00
14138;DHT22;8199;51.310;9.466;2023-07-31T01:35:37;24.70;50.00
14138;DHT22;8199;51.310;9.466;2023-07-31T01:38:05;24.60;50.10
14138;DHT22;8199;51.310;9.466;2023-07-31T01:40:30;24.60;50.10
14138;DHT22;8199;51.310;9.466;2023-07-31T01:42:56;24.70;50.00
14138;DHT22;8199;51.310;9.466;2023-07-31T01:45:21;24.60;50.00
14138;DHT22;8199;51.310;9.466;2023-07-31T01:47:47;24.70;50.10
14138;DHT22;8199;51.310;9.466;2023-07-31T01:50:12;24.60;50.10
14138;DHT22;8199;51.310;9.466;2023-07-31T01:52:38;24.70;50.20
14138;DHT22;8199;51.310;9.466;2023-07-31T01:55:04;24.60;50.20
14138;DHT22;8199;51.310;9.466;2023-07-31T01:57:29;24.60;50.20
14138;DHT22;8199;51.310;9.466;2023-07-31T01:59:55;24.60;50.20
14138;DHT22;8199;51.310;9.466;2023-07-31T02:02:22;24.50;50.30
14138;DHT22;8199;51.310;9.466;2023-07-31T02:04:51;24.70;50.10
14138;DHT22;8199;51.310;9.466;2023-07-31T02:07:16;24.70;50.10
14138;DHT22;8199;51.310;9.466;2023-07-31T02:09:42;24.70;50.30
14138;DHT22;8199;51.310;9.466;2023-07-31T02:12:07;24.60;50.30
14138;DHT22;8199;51.310;9.466;2023-07-31T02:14:36;24.60;50.40
14138;DHT22;8199;51.310;9.466;2023-07-31T02:17:02;24.50;50.50
14138;DHT22;8199;51.310;9.466;2023-07-31T02:19:27;24.50;50.60
14138;DHT22;8199;51.310;9.466;2023-07-31T02:21:53;24.60;50.40
14138;DHT22;8199;51.310;9.466;2023-07-31T02:24:18;24.70;50.40
14138;DHT22;8199;51.310;9.466;2023-07-31T02:26:44;24.70;50.40
14138;DHT22;8199;51.310;9.466;2023-07-31T02:29:09;24.70;50.50
14138;DHT22;8199;51.310;9.466;2023-07-31T02:31:35;24.70;50.50
14138;DHT22;8199;51.310;9.466;2023-07-31T02:34:00;24.60;50.50
14138;DHT22;8199;51.310;9.466;2023-07-31T02:36:26;24.60;50.70
14138;DHT22;8199;51.310;9.466;2023-07-31T02:38:51;24.70;50.70
14138;DHT22;8199;51.310;9.466;2023-07-31T02:41:17;24.70;50.80
14138;DHT22;8199;51.310;9.466;2023-07-31T02:43:42;24.50;50.90
14138;DHT22;8199;51.310;9.466;2023-07-31T02:46:08;24.40;51.20
14138;DHT22;8199;51.310;9.466;2023-07-31T02:48:34;24.40;51.30
14138;DHT22;8199;51.310;9.466;2023-07-31T02:50:59;24.40;51.30
14138;DHT22;8199;51.310;9.466;2023-07-31T02:53:25;24.40;51.30
14138;DHT22;8199;51.310;9.466;2023-07-31T02:55:50;24.40;51.30
14138;DHT22;8199;51.310;9.466;2023-07-31T02:58:16;24.40;51.50
14138;DHT22;8199;51.310;9.466;2023-07-31T03:00:44;24.40;51.40
14138;DHT22;8199;51.310;9.466;2023-07-31T03:03:10;24.40;51.50
14138;DHT22;8199;51.310;9.466;2023-07-31T03:05:36;24.40;51.50
14138;DHT22;8199;51.310;9.466;2023-07-31T03:08:02;24.50;51.30
14138;DHT22;8199;51.310;9.466;2023-07-31T03:10:27;24.60;51.20
14138;DHT22;8199;51.310;9.466;2023-07-31T03:12:53;24.60;51.20
14138;DHT22;8199;51.310;9.466;2023-07-31T03:15:18;24.50;51.20
14138;DHT22;8199;51.310;9.466;2023-07-31T03:17:44;24.50;51.20
14138;DHT22;8199;51.310;9.466;2023-07-31T03:20:10;24.40;51.20
14138;DHT22;8199;51.310;9.466;2023-07-31T03:22:36;24.40;51.20
14138;DHT22;8199;51.310;9.466;2023-07-31T03:25:02;24.30;51.40
14138;DHT22;8199;51.310;9.466;2023-07-31T03:27:28;24.30;51.30
14138;DHT22;8199;51.310;9.466;2023-07-31T03:29:53;24.40;51.40
14138;DHT22;8199;51.310;9.466;2023-07-31T03:32:19;24.30;51.50
14138;DHT22;8199;51.310;9.466;2023-07-31T03:34:46;24.50;51.30
14138;DHT22;8199;51.310;9.466;2023-07-31T03:37:11;24.50;51.00
14138;DHT22;8199;51.310;9.466;2023-07-31T03:39:37;24.50;51.40
14138;DHT22;8199;51.310;9.466;2023-07-31T03:42:03;24.50;51.00
14138;DHT22;8199;51.310;9.466;2023-07-31T03:44:28;24.70;50.80
14138;DHT22;8199;51.310;9.466;2023-07-31T03:46:54;24.60;50.80
14138;DHT22;8199;51.310;9.466;2023-07-31T03:49:19;24.60;50.80
14138;DHT22;8199;51.310;9.466;2023-07-31T03:51:45;24.60;50.80
14138;DHT22;8199;51.310;9.466;2023-07-31T03:54:11;24.60;50.70
14138;DHT22;8199;51.310;9.466;2023-07-31T03:56:36;24.50;50.90
14138;DHT22;8199;51.310;9.466;2023-07-31T03:59:03;24.50;50.70
14138;DHT22;8199;51.310;9.466;2023-07-31T04:01:29;24.50;50.80
14138;DHT22;8199;51.310;9.466;2023-07-31T04:03:55;24.40;50.90
14138;DHT22;8199;51.310;9.466;2023-07-31T04:06:20;24.50;50.90
14138;DHT22;8199;51.310;9.466;2023-07-31T04:08:46;24.50;50.80
14138;DHT22;8199;51.310;9.466;2023-07-31T04:11:11;24.40;50.70
14138;DHT22;8199;51.310;9.466;2023-07-31T04:13:40;24.40;50.80
14138;DHT22;8199;51.310;9.466;2023-07-31T04:16:05;24.40;50.80
14138;DHT22;8199;51.310;9.466;2023-07-31T04:18:31;24.50;50.80
14138;DHT22;8199;51.310;9.466;2023-07-31T04:20:57;24.50;50.70
14138;DHT22;8199;51.310;9.466;2023-07-31T04:23:27;24.40;50.60
14138;DHT22;8199;51.310;9.466;2023-07-31T04:25:53;24.40;50.60
14138;DHT22;8199;51.310;9.466;2023-07-31T04:28:19;24.40;50.50
14138;DHT22;8199;51.310;9.466;2023-07-31T04:30:44;24.30;50.70
14138;DHT22;8199;51.310;9.466;2023-07-31T04:33:10;24.40;50.70
14138;DHT22;8199;51.310;9.466;2023-07-31T04:35:35;24.40;50.60
14138;DHT22;8199;51.310;9.466;2023-07-31T04:38:01;24.30;50.70
14138;DHT22;8199;51.310;9.466;2023-07-31T04:40:27;24.40;50.70
14138;DHT22;8199;51.310;9.466;2023-07-31T04:42:52;24.40;50.70
14138;DHT22;8199;51.310;9.466;2023-07-31T04:45:18;24.30;50.60
14138;DHT22;8199;51.310;9.466;2023-07-31T04:47:43;24.30;50.70
14138;DHT22;8199;51.310;9.466;2023-07-31T04:50:09;24.30;50.70
14138;DHT22;8199;51.310;9.466;2023-07-31T04:52:35;24.30;50.40
14138;DHT22;8199;51.310;9.466;2023-07-31T04:55:00;24.30;50.50
14138;DHT22;8199;51.310;9.466;2023-07-31T04:57:26;24.40;50.60
14138;DHT22;8199;51.310;9.466;2023-07-31T04:59:52;24.30;50.50
14138;DHT22;8199;51.310;9.466;2023-07-31T05:02:17;24.40;50.40
14138;DHT22;8199;51.310;9.466;2023-07-31T05:04:43;24.30;50.30
14138;DHT22;8199;51.310;9.466;2023-07-31T05:07:08;24.30;50.30
14138;DHT22;8199;51.310;9.466;2023-07-31T05:09:34;24.40;50.40
14138;DHT22;8199;51.310;9.466;2023-07-31T05:11:59;24.40;50.40
14138;DHT22;8199;51.310;9.466;2023-07-31T05:14:26;24.50;50.20
14138;DHT22;8199;51.310;9.466;2023-07-31T05:16:51;24.50;50.10
14138;DHT22;8199;51.310;9.466;2023-07-31T05:19:17;24.40;50.20
14138;DHT22;8199;51.310;9.466;2023-07-31T05:21:43;24.50;50.20
14138;DHT22;8199;51.310;9.466;2023-07-31T05:24:10;24.50;50.00
14138;DHT22;8199;51.310;9.466;2023-07-31T05:26:36;24.60;50.00
14138;DHT22;8199;51.310;9.466;2023-07-31T05:29:01;24.60;50.10
14138;DHT22;8199;51.310;9.466;2023-07-31T05:31:27;24.50;50.20
14138;DHT22;8199;51.310;9.466;2023-07-31T05:33:52;24.60;50.20
14138;DHT22;8199;51.310;9.466;2023-07-31T05:36:18;24.50;50.00
14138;DHT22;8199;51.310;9.466;2023-07-31T05:38:44;24.50;50.30
14138;DHT22;8199;51.310;9.466;2023-07-31T05:41:11;24.50;50.30
14138;DHT22;8199;51.310;9.466;2023-07-31T05:43:36;24.50;50.40
14138;DHT22;8199;51.310;9.466;2023-07-31T05:46:02;24.60;50.40
14138;DHT22;8199;51.310;9.466;2023-07-31T05:48:28;24.50;50.50
14138;DHT22;8199;51.310;9.466;2023-07-31T05:50:54;24.60;50.40
14138;DHT22;8199;51.310;9.466;2023-07-31T05:53:19;24.50;50.50
14138;DHT22;8199;51.310;9.466;2023-07-31T05:55:45;24.60;50.40
14138;DHT22;8199;51.310;9.466;2023-07-31T05:58:10;24.60;50.40
14138;DHT22;8199;51.310;9.466;2023-07-31T06:00:36;24.40;50.50
14138;DHT22;8199;51.310;9.466;2023-07-31T06:03:01;24.40;50.60
14138;DHT22;8199;51.310;9.466;2023-07-31T06:05:27;24.40;50.80
14138;DHT22;8199;51.310;9.466;2023-07-31T06:07:55;24.40;50.80
14138;DHT22;8199;51.310;9.466;2023-07-31T06:10:20;24.50;50.80
14138;DHT22;8199;51.310;9.466;2023-07-31T06:12:46;24.40;50.90
14138;DHT22;8199;51.310;9.466;2023-07-31T06:15:12;24.50;50.90
14138;DHT22;8199;51.310;9.466;2023-07-31T06:17:37;24.50;51.50
14138;DHT22;8199;51.310;9.466;2023-07-31T06:20:03;24.50;51.00
14138;DHT22;8199;51.310;9.466;2023-07-31T06:22:30;24.50;51.00
14138;DHT22;8199;51.310;9.466;2023-07-31T06:24:56;24.60;51.00
14138;DHT22;8199;51.310;9.466;2023-07-31T06:27:21;24.60;51.20
14138;DHT22;8199;51.310;9.466;2023-07-31T06:29:47;24.70;51.30
14138;DHT22;8199;51.310;9.466;2023-07-31T06:32:13;24.70;51.10
14138;DHT22;8199;51.310;9.466;2023-07-31T06:34:39;24.70;51.10
14138;DHT22;8199;51.310;9.466;2023-07-31T06:37:05;24.70;51.20
14138;DHT22;8199;51.310;9.466;2023-07-31T06:39:30;24.70;51.40
14138;DHT22;8199;51.310;9.466;2023-07-31T06:41:56;24.60;51.60
14138;DHT22;8199;51.310;9.466;2023-07-31T06:44:21;24.60;52.00
14138;DHT22;8199;51.310;9.466;2023-07-31T06:46:47;24.50;52.10
14138;DHT22;8199;51.310;9.466;2023-07-31T06:49:12;24.50;52.40
14138;DHT22;8199;51.310;9.466;2023-07-31T06:51:40;24.60;52.40
14138;DHT22;8199;51.310;9.466;2023-07-31T06:54:06;24.50;52.50
14138;DHT22;8199;51.310;9.466;2023-07-31T06:56:31;24.60;52.40
14138;DHT22;8199;51.310;9.466;2023-07-31T06:58:57;24.60;52.60
14138;DHT22;8199;51.310;9.466;2023-07-31T07:01:23;24.60;52.60
14138;DHT22;8199;51.310;9.466;2023-07-31T07:03:48;24.50;52.80
14138;DHT22;8199;51.310;9.466;2023-07-31T07:06:16;24.50;53.40
14138;DHT22;8199;51.310;9.466;2023-07-31T07:08:42;24.50;53.40
14138;DHT22;8199;51.310;9.466;2023-07-31T07:11:07;24.50;53.50
14138;DHT22;8199;51.310;9.466;2023-07-31T07:13:33;24.40;53.80
14138;DHT22;8199;51.310;9.466;2023-07-31T07:15:59;24.40;53.90
14138;DHT22;8199;51.310;9.466;2023-07-31T07:18:24;24.40;54.10
14138;DHT22;8199;51.310;9.466;2023-07-31T07:20:52;24.50;54.40
14138;DHT22;8199;51.310;9.466;2023-07-31T07:23:18;24.50;54.40
14138;DHT22;8199;51.310;9.466;2023-07-31T07:25:44;24.50;54.40
14138;DHT22;8199;51.310;9.466;2023-07-31T07:28:10;24.40;54.50
14138;DHT22;8199;51.310;9.466;2023-07-31T07:30:36;24.40;54.50
14138;DHT22;8199;51.310;9.466;2023-07-31T07:33:01;24.30;54.70
14138;DHT22;8199;51.310;9.466;2023-07-31T07:35:27;24.40;54.50
14138;DHT22;8199;51.310;9.466;2023-07-31T07:37:53;24.40;54.50
14138;DHT22;8199;51.310;9.466;2023-07-31T07:40:19;24.40;54.30
14138;DHT22;8199;51.310;9.466;2023-07-31T07:42:45;24.40;54.40
14138;DHT22;8199;51.310;9.466;2023-07-31T07:45:10;24.50;54.30
14138;DHT22;8199;51.310;9.466;2023-07-31T07:47:36;24.50;54.20
14138;DHT22;8199;51.310;9.466;2023-07-31T07:50:01;24.50;54.20
14138;DHT22;8199;51.310;9.466;2023-07-31T07:52:27;24.50;54.20
14138;DHT22;8199;51.310;9.466;2023-07-31T07:54:53;24.50;54.30
14138;DHT22;8199;51.310;9.466;2023-07-31T07:57:18;24.50;54.20
14138;DHT22;8199;51.310;9.466;2023-07-31T07:59:44;24.50;54.30
14138;DHT22;8199;51.310;9.466;2023-07-31T08:02:10;24.50;54.60
14138;DHT22;8199;51.310;9.466;2023-07-31T08:04:35;24.50;54.20
14138;DHT22;8199;51.310;9.466;2023-07-31T08:07:01;24.60;54.10
14138;DHT22;8199;51.310;9.466;2023-07-31T08:09:26;24.70;54.10
14138;DHT22;8199;51.310;9.466;2023-07-31T08:11:52;24.60;53.90
14138;DHT22;8199;51.310;9.466;2023-07-31T08:14:17;24.50;53.70
14138;DHT22;8199;51.310;9.466;2023-07-31T08:16:43;24.60;53.70
14138;DHT22;8199;51.310;9.466;2023-07-31T08:19:09;24.50;53.80
14138;DHT22;8199;51.310;9.466;2023-07-31T08:21:34;24.40;53.80
14138;DHT22;8199;51.310;9.466;2023-07-31T08:24:00;24.40;53.80
14138;DHT22;8199;51.310;9.466;2023-07-31T08:26:25;24.40;53.70
14138;DHT22;8199;51.310;9.466;2023-07-31T08:28:51;24.40;53.60
14138;DHT22;8199;51.310;9.466;2023-07-31T08:31:17;24.40;53.60
14138;DHT22;8199;51.310;9.466;2023-07-31T08:33:43;24.40;53.80
14138;DHT22;8199;51.310;9.466;2023-07-31T08:36:09;24.40;53.80
14138;DHT22;8199;51.310;9.466;2023-07-31T08:38:34;24.30;54.00
14138;DHT22;8199;51.310;9.466;2023-07-31T08:41:00;24.40;54.00
14138;DHT22;8199;51.310;9.466;2023-07-31T08:43:26;24.40;54.10
14138;DHT22;8199;51.310;9.466;2023-07-31T08:45:53;24.40;54.20
14138;DHT22;8199;51.310;9.466;2023-07-31T08:48:21;24.50;54.10
14138;DHT22;8199;51.310;9.466;2023-07-31T08:50:47;24.50;54.10
14138;DHT22;8199;51.310;9.466;2023-07-31T08:53:13;24.40;54.30
14138;DHT22;8199;51.310;9.466;2023-07-31T08:55:38;24.40;54.30
14138;DHT22;8199;51.310;9.466;2023-07-31T08:58:05;24.40;54.20
14138;DHT22;8199;51.310;9.466;2023-07-31T09:00:32;24.40;54.50
14138;DHT22;8199;51.310;9.466;2023-07-31T09:03:09;24.30;54.30
14138;DHT22;8199;51.310;9.466;2023-07-31T09:05:36;24.20;54.70
14138;DHT22;8199;51.310;9.466;2023-07-31T09:08:05;24.40;54.50
14138;DHT22;8199;51.310;9.466;2023-07-31T09:10:33;24.30;54.90
14138;DHT22;8199;51.310;9.466;2023-07-31T09:12:59;24.30;54.40
14138;DHT22;8199;51.310;9.466;2023-07-31T09:15:24;24.30;54.50
14138;DHT22;8199;51.310;9.466;2023-07-31T09:17:59;24.40;54.60
14138;DHT22;8199;51.310;9.466;2023-07-31T09:20:28;24.30;54.70
14138;DHT22;8199;51.310;9.466;2023-07-31T09:22:55;24.20;54.80
14138;DHT22;8199;51.310;9.466;2023-07-31T09:25:21;24.20;54.80
14138;DHT22;8199;51.310;9.466;2023-07-31T09:27:52;24.30;54.90
14138;DHT22;8199;51.310;9.466;2023-07-31T09:30:19;24.20;54.90
14138;DHT22;8199;51.310;9.466;2023-07-31T09:32:45;24.20;54.90
14138;DHT22;8199;51.310;9.466;2023-07-31T09:37:59;24.30;54.90
14138;DHT22;8199;51.310;9.466;2023-07-31T09:40:35;24.30;54.90
14138;DHT22;8199;51.310;9.466;2023-07-31T09:43:06;24.30;55.20
14138;DHT22;8199;51.310;9.466;2023-07-31T09:45:37;24.30;55.60
14138;DHT22;8199;51.310;9.466;2023-07-31T09:48:03;24.30;55.60
14138;DHT22;8199;51.310;9.466;2023-07-31T09:50:31;24.40;55.80
14138;DHT22;8199;51.310;9.466;2023-07-31T09:52:57;24.50;55.80
14138;DHT22;8199;51.310;9.466;2023-07-31T09:55:24;24.50;55.70
14138;DHT22;8199;51.310;9.466;2023-07-31T09:57:50;24.50;56.00
14138;DHT22;8199;51.310;9.466;2023-07-31T10:00:19;24.50;56.00
14138;DHT22;8199;51.310;9.466;2023-07-31T10:02:46;24.40;56.50
14138;DHT22;8199;51.310;9.466;2023-07-31T10:05:14;24.30;56.70
14138;DHT22;8199;51.310;9.466;2023-07-31T10:07:51;24.30;57.00
14138;DHT22;8199;51.310;9.466;2023-07-31T10:10:20;24.40;56.50
14138;DHT22;8199;51.310;9.466;2023-07-31T10:12:48;24.50;56.70
14138;DHT22;8199;51.310;9.466;2023-07-31T10:15:15;24.40;57.40
14138;DHT22;8199;51.310;9.466;2023-07-31T10:17:40;24.40;56.90
14138;DHT22;8199;51.310;9.466;2023-07-31T10:20:07;24.40;57.00
14138;DHT22;8199;51.310;9.466;2023-07-31T10:22:34;24.40;57.00
14138;DHT22;8199;51.310;9.466;2023-07-31T10:25:00;24.40;56.70
14138;DHT22;8199;51.310;9.466;2023-07-31T10:27:26;24.50;56.70
14138;DHT22;8199;51.310;9.466;2023-07-31T10:29:54;24.50;56.50
14138;DHT22;8199;51.310;9.466;2023-07-31T10:32:20;24.50;56.40
14138;DHT22;8199;51.310;9.466;2023-07-31T10:34:48;24.40;56.50
14138;DHT22;8199;51.310;9.466;2023-07-31T10:37:36;24.50;56.40
14138;DHT22;8199;51.310;9.466;2023-07-31T10:40:19;24.40;56.10
14138;DHT22;8199;51.310;9.466;2023-07-31T10:42:53;24.40;56.00
14138;DHT22;8199;51.310;9.466;2023-07-31T10:45:32;24.40;56.00
14138;DHT22;8199;51.310;9.466;2023-07-31T10:48:06;24.50;56.10
14138;DHT22;8199;51.310;9.466;2023-07-31T10:50:36;24.50;56.20
14138;DHT22;8199;51.310;9.466;2023-07-31T10:53:02;24.50;56.40
14138;DHT22;8199;51.310;9.466;2023-07-31T10:55:48;24.50;56.40
14138;DHT22;8199;51.310;9.466;2023-07-31T10:58:14;24.50;56.30
14138;DHT22;8199;51.310;9.466;2023-07-31T11:00:44;24.40;56.20
14138;DHT22;8199;51.310;9.466;2023-07-31T11:03:17;24.40;56.10
14138;DHT22;8199;51.310;9.466;2023-07-31T11:05:44;24.40;56.10
14138;DHT22;8199;51.310;9.466;2023-07-31T11:08:11;24.40;55.90
14138;DHT22;8199;51.310;9.466;2023-07-31T11:10:37;24.40;55.90
14138;DHT22;8199;51.310;9.466;2023-07-31T11:13:04;24.40;55.80
14138;DHT22;8199;51.310;9.466;2023-07-31T11:15:30;24.30;55.70
14138;DHT22;8199;51.310;9.466;2023-07-31T11:17:56;24.40;55.70
14138;DHT22;8199;51.310;9.466;2023-07-31T11:20:24;24.40;55.50
14138;DHT22;8199;51.310;9.466;2023-07-31T11:22:49;24.30;55.60
14138;DHT22;8199;51.310;9.466;2023-07-31T11:25:16;24.20;55.60
14138;DHT22;8199;51.310;9.466;2023-07-31T11:27:41;24.30;55.60
14138;DHT22;8199;51.310;9.466;2023-07-31T11:30:09;24.30;55.50
14138;DHT22;8199;51.310;9.466;2023-07-31T11:32:38;24.30;55.50
14138;DHT22;8199;51.310;9.466;2023-07-31T11:35:03;24.30;55.40
14138;DHT22;8199;51.310;9.466;2023-07-31T11:37:44;24.30;55.20
14138;DHT22;8199;51.310;9.466;2023-07-31T11:40:10;24.30;55.10
14138;DHT22;8199;51.310;9.466;2023-07-31T11:42:36;24.20;55.00
14138;DHT22;8199;51.310;9.466;2023-07-31T11:45:03;24.30;54.90
14138;DHT22;8199;51.310;9.466;2023-07-31T11:47:30;24.30;54.90
14138;DHT22;8199;51.310;9.466;2023-07-31T11:49:57;24.30;54.60
14138;DHT22;8199;51.310;9.466;2023-07-31T11:52:23;24.30;54.70
14138;DHT22;8199;51.310;9.466;2023-07-31T11:54:50;24.30;54.70
14138;DHT22;8199;51.310;9.466;2023-07-31T11:57:16;24.30;54.50
14138;DHT22;8199;51.310;9.466;2023-07-31T11:59:42;24.30;54.30
14138;DHT22;8199;51.310;9.466;2023-07-31T12:02:08;24.20;54.10
14138;DHT22;8199;51.310;9.466;2023-07-31T12:04:34;24.30;54.40
14138;DHT22;8199;51.310;9.466;2023-07-31T12:07:03;24.20;53.80
14138;DHT22;8199;51.310;9.466;2023-07-31T12:09:28;24.20;53.80
14138;DHT22;8199;51.310;9.466;2023-07-31T12:11:54;24.30;53.80
14138;DHT22;8199;51.310;9.466;2023-07-31T12:14:28;24.30;53.50
14138;DHT22;8199;51.310;9.466;2023-07-31T12:16:55;24.30;53.60
14138;DHT22;8199;51.310;9.466;2023-07-31T12:19:22;24.20;53.50
14138;DHT22;8199;51.310;9.466;2023-07-31T12:21:48;24.30;53.60
14138;DHT22;8199;51.310;9.466;2023-07-31T12:24:13;24.30;53.70
14138;DHT22;8199;51.310;9.466;2023-07-31T12:26:39;24.30;53.80
14138;DHT22;8199;51.310;9.466;2023-07-31T12:29:07;24.40;53.80
14138;DHT22;8199;51.310;9.466;2023-07-31T12:31:34;24.30;53.90
14138;DHT22;8199;51.310;9.466;2023-07-31T12:33:59;24.30;54.10
14138;DHT22;8199;51.310;9.466;2023-07-31T12:36:25;24.20;54.50
14138;DHT22;8199;51.310;9.466;2023-07-31T12:38:51;24.20;54.80
14138;DHT22;8199;51.310;9.466;2023-07-31T12:41:17;24.30;54.90
14138;DHT22;8199;51.310;9.466;2023-07-31T12:43:45;24.30;55.10
14138;DHT22;8199;51.310;9.466;2023-07-31T12:46:11;24.20;55.40
14138;DHT22;8199;51.310;9.466;2023-07-31T12:48:40;24.30;55.60
14138;DHT22;8199;51.310;9.466;2023-07-31T12:51:06;24.20;55.60
14138;DHT22;8199;51.310;9.466;2023-07-31T12:53:34;24.30;55.60
14138;DHT22;8199;51.310;9.466;2023-07-31T12:56:00;24.20;55.60
14138;DHT22;8199;51.310;9.466;2023-07-31T12:58:26;24.30;55.80
14138;DHT22;8199;51.310;9.466;2023-07-31T13:00:52;24.30;55.40
14138;DHT22;8199;51.310;9.466;2023-07-31T13:03:17;24.40;55.20
14138;DHT22;8199;51.310;9.466;2023-07-31T13:05:43;24.40;55.20
14138;DHT22;8199;51.310;9.466;2023-07-31T13:08:08;24.40;55.10
14138;DHT22;8199;51.310;9.466;2023-07-31T13:10:34;24.40;55.30
14138;DHT22;8199;51.310;9.466;2023-07-31T13:12:59;24.40;55.20
14138;DHT22;8199;51.310;9.466;2023-07-31T13:15:25;24.50;54.90
14138;DHT22;8199;51.310;9.466;2023-07-31T13:17:51;24.50;54.70
14138;DHT22;8199;51.310;9.466;2023-07-31T13:20:16;24.40;54.70
14138;DHT22;8199;51.310;9.466;2023-07-31T13:22:42;24.40;54.70
14138;DHT22;8199;51.310;9.466;2023-07-31T13:25:07;24.40;54.70
14138;DHT22;8199;51.310;9.466;2023-07-31T13:27:34;24.50;54.50
14138;DHT22;8199;51.310;9.466;2023-07-31T13:30:00;24.50;54.40
14138;DHT22;8199;51.310;9.466;2023-07-31T13:32:25;24.60;54.30
14138;DHT22;8199;51.310;9.466;2023-07-31T13:34:51;24.50;54.10
14138;DHT22;8199;51.310;9.466;2023-07-31T13:37:17;24.50;54.20
14138;DHT22;8199;51.310;9.466;2023-07-31T13:39:42;24.50;54.20
14138;DHT22;8199;51.310;9.466;2023-07-31T13:42:09;24.50;54.10
14138;DHT22;8199;51.310;9.466;2023-07-31T13:44:41;24.50;54.10
14138;DHT22;8199;51.310;9.466;2023-07-31T13:47:08;24.50;54.20
14138;DHT22;8199;51.310;9.466;2023-07-31T13:49:35;24.50;54.00
14138;DHT22;8199;51.310;9.466;2023-07-31T13:52:01;24.50;54.00
14138;DHT22;8199;51.310;9.466;2023-07-31T13:54:27;24.60;54.00
14138;DHT22;8199;51.310;9.466;2023-07-31T13:56:53;24.50;54.30
14138;DHT22;8199;51.310;9.466;2023-07-31T13:59:18;24.50;55.00
14138;DHT22;8199;51.310;9.466;2023-07-31T14:01:44;24.50;54.90
14138;DHT22;8199;51.310;9.466;2023-07-31T14:04:10;24.50;55.00
14138;DHT22;8199;51.310;9.466;2023-07-31T14:06:36;24.50;55.00
14138;DHT22;8199;51.310;9.466;2023-07-31T14:09:02;24.60;54.60
14138;DHT22;8199;51.310;9.466;2023-07-31T14:11:28;24.60;54.30
14138;DHT22;8199;51.310;9.466;2023-07-31T14:13:55;24.60;54.30
14138;DHT22;8199;51.310;9.466;2023-07-31T14:16:21;24.60;54.20
14138;DHT22;8199;51.310;9.466;2023-07-31T14:18:47;24.70;54.00
14138;DHT22;8199;51.310;9.466;2023-07-31T14:21:13;24.60;54.00
14138;DHT22;8199;51.310;9.466;2023-07-31T14:23:39;24.70;53.90
14138;DHT22;8199;51.310;9.466;2023-07-31T14:26:04;24.70;53.80
14138;DHT22;8199;51.310;9.466;2023-07-31T14:28:30;24.80;53.70
14138;DHT22;8199;51.310;9.466;2023-07-31T14:30:56;24.80;53.80
14138;DHT22;8199;51.310;9.466;2023-07-31T14:33:21;24.70;53.90
14138;DHT22;8199;51.310;9.466;2023-07-31T14:35:47;24.70;54.00
14138;DHT22;8199;51.310;9.466;2023-07-31T14:38:12;24.80;53.70
14138;DHT22;8199;51.310;9.466;2023-07-31T14:40:38;24.80;53.80
14138;DHT22;8199;51.310;9.466;2023-07-31T14:43:04;24.80;53.90
14138;DHT22;8199;51.310;9.466;2023-07-31T14:45:29;24.80;53.70
14138;DHT22;8199;51.310;9.466;2023-07-31T14:47:55;24.90;53.60
14138;DHT22;8199;51.310;9.466;2023-07-31T14:50:21;24.90;53.50
14138;DHT22;8199;51.310;9.466;2023-07-31T14:52:48;24.90;53.50
14138;DHT22;8199;51.310;9.466;2023-07-31T14:55:14;25.00;53.40
14138;DHT22;8199;51.310;9.466;2023-07-31T14:57:39;24.90;53.50
14138;DHT22;8199;51.310;9.466;2023-07-31T15:00:05;25.00;53.50
14138;DHT22;8199;51.310;9.466;2023-07-31T15:02:34;25.00;53.40
14138;DHT22;8199;51.310;9.466;2023-07-31T15:05:00;25.00;54.00
14138;DHT22;8199;51.310;9.466;2023-07-31T15:07:25;25.00;53.50
14138;DHT22;8199;51.310;9.466;2023-07-31T15:09:51;25.00;53.70
14138;DHT22;8199;51.310;9.466;2023-07-31T15:12:17;24.90;53.90
14138;DHT22;8199;51.310;9.466;2023-07-31T15:14:42;24.90;54.00
14138;DHT22;8199;51.310;9.466;2023-07-31T15:17:08;24.90;53.80
14138;DHT22;8199;51.310;9.466;2023-07-31T15:19:33;24.90;54.30
14138;DHT22;8199;51.310;9.466;2023-07-31T15:22:03;24.90;54.80
14138;DHT22;8199;51.310;9.466;2023-07-31T15:24:29;25.00;54.70
14138;DHT22;8199;51.310;9.466;2023-07-31T15:26:55;25.00;55.30
14138;DHT22;8199;51.310;9.466;2023-07-31T15:29:20;25.00;54.90
14138;DHT22;8199;51.310;9.466;2023-07-31T15:31:47;25.10;54.90
14138;DHT22;8199;51.310;9.466;2023-07-31T15:34:13;25.10;55.30
14138;DHT22;8199;51.310;9.466;2023-07-31T15:36:39;25.20;54.80
14138;DHT22;8199;51.310;9.466;2023-07-31T15:39:05;25.20;54.70
14138;DHT22;8199;51.310;9.466;2023-07-31T15:41:36;25.20;54.60
14138;DHT22;8199;51.310;9.466;2023-07-31T15:44:02;25.30;54.80
14138;DHT22;8199;51.310;9.466;2023-07-31T15:46:28;25.30;54.70